D/T METAR WX W/DIR W/SPE G/SPE TEMP DEWP
23/05/19 13:20 EGPF 231220Z AUTO 26014KT 230V290 9999 BKN022 BKN027 OVC033 13/08 Q1014 W (260°) 16.1mph 13°C 8°C
23/05/19 12:50 EGPF 231150Z AUTO 25014KT 9999 OVC025 13/07 Q1014 WSW (250°) 16.1mph 13°C 7°C
23/05/19 12:20 EGPF 231120Z AUTO 26011KT 9999 BKN022 OVC028 12/07 Q1014 W (260°) 12.7mph 12°C 7°C
23/05/19 11:50 EGPF 231050Z AUTO 25012KT 9999 OVC022 12/07 Q1014 WSW (250°) 13.8mph 12°C 7°C
23/05/19 11:20 EGPF 231020Z AUTO 26011KT 230V290 9999 BKN023 OVC027 12/07 Q1014 W (260°) 12.7mph 12°C 7°C
23/05/19 10:50 EGPF 230950Z AUTO 25011KT 9999 OVC023 12/07 Q1014 WSW (250°) 12.7mph 12°C 7°C
23/05/19 10:20 EGPF 230920Z AUTO 24011KT 9999 BKN024 OVC028 12/07 Q1014 WSW (240°) 12.7mph 12°C 7°C
23/05/19 09:50 EGPF 230850Z AUTO 25013KT 9999 BKN025 OVC029 11/07 Q1015 WSW (250°) 15.0mph 11°C 7°C
23/05/19 09:20 EGPF 230820Z AUTO 24011KT 9999 OVC026 11/07 Q1015 WSW (240°) 12.7mph 11°C 7°C
23/05/19 08:50 EGPF 230750Z AUTO 24013KT 9999 BKN021 OVC029 11/07 Q1015 WSW (240°) 15.0mph 11°C 7°C
23/05/19 08:20 EGPF 230720Z AUTO 25011KT 9999 SCT020 BKN025 OVC030 11/07 Q1015 WSW (250°) 12.7mph 11°C 7°C
23/05/19 07:50 EGPF 230650Z AUTO 24011KT 9999 BKN023 OVC029 10/07 Q1015 WSW (240°) 12.7mph 10°C 7°C
23/05/19 07:20 EGPF 230620Z AUTO 23010KT 9999 BKN022 OVC029 10/07 Q1014 SW (230°) 11.5mph 10°C 7°C
23/05/19 06:50 EGPF 230550Z AUTO 22009KT 9999 OVC025 09/07 Q1014 SW (220°) 10.4mph 9°C 7°C
23/05/19 06:20 EGPF 230520Z AUTO 23008KT 9999 OVC026 09/07 Q1014 SW (230°) 9.2mph 9°C 7°C
23/05/19 05:50 EGPF 230450Z AUTO 23008KT 9999 OVC025 09/06 Q1014 SW (230°) 9.2mph 9°C 6°C
23/05/19 05:20 EGPF 230420Z AUTO 23010KT 9999 OVC026 08/06 Q1014 SW (230°) 11.5mph 8°C 6°C
23/05/19 04:50 EGPF 230350Z AUTO 23009KT 9999 BKN028 08/06 Q1015 SW (230°) 10.4mph 8°C 6°C
23/05/19 03:50 EGPF 230250Z AUTO 21004KT 170V250 9999 SCT030 07/05 Q1015 SSW (210°) 4.6mph 7°C 5°C
23/05/19 03:20 EGPF 230220Z AUTO 24008KT 9999 BKN028 07/05 Q1015 WSW (240°) 9.2mph 7°C 5°C
23/05/19 02:50 EGPF 230150Z AUTO 22008KT 9999 OVC026 07/06 Q1015 SW (220°) 9.2mph 7°C 6°C
23/05/19 02:20 EGPF 230120Z AUTO 24010KT 9999 SCT027 07/05 Q1015 WSW (240°) 11.5mph 7°C 5°C
23/05/19 01:50 EGPF 230050Z AUTO 22007KT 9999 NCD 05/04 Q1015 SW (220°) 8.1mph 5°C 4°C
23/05/19 01:20 EGPF 230020Z AUTO 22006KT 9999 NCD 06/04 Q1016 SW (220°) 6.9mph 6°C 4°C
23/05/19 00:50 EGPF 222350Z AUTO 25006KT 9999 FEW032 08/05 Q1016 WSW (250°) 6.9mph 8°C 5°C
22/05/19 23:50 EGPF 222250Z AUTO 25006KT 9999 BKN032 08/05 Q1016 WSW (250°) 6.9mph 8°C 5°C
22/05/19 23:20 EGPF 222220Z AUTO 23010KT 9999 SCT033 08/05 Q1016 SW (230°) 11.5mph 8°C 5°C
22/05/19 22:50 EGPF 222150Z AUTO 23004KT 190V250 9999 NCD 08/05 Q1016 SW (230°) 4.6mph 8°C 5°C
22/05/19 22:20 EGPF 222120Z AUTO 23006KT 9999 NCD 07/05 Q1016 SW (230°) 6.9mph 7°C 5°C
22/05/19 21:20 EGPF 222020Z AUTO 25007KT 9999 NCD 10/05 Q1016 WSW (250°) 8.1mph 10°C 5°C
22/05/19 20:50 EGPF 221950Z AUTO 27009KT 9999 NCD 11/06 Q1016 W (270°) 10.4mph 11°C 6°C
22/05/19 20:20 EGPF 221920Z AUTO 27009KT 9999 NCD 12/06 Q1016 W (270°) 10.4mph 12°C 6°C
22/05/19 19:50 EGPF 221850Z AUTO 28011KT 9999 SCT047 13/06 Q1016 W (280°) 12.7mph 13°C 6°C
22/05/19 19:20 EGPF 221820Z AUTO 27012KT 9999 SCT035 12/05 Q1016 W (270°) 13.8mph 12°C 5°C
22/05/19 18:50 EGPF 221750Z AUTO 28010KT 250V310 9999 SCT035 BKN041 OVC049 13/06 Q1016 W (280°) 11.5mph 13°C 6°C
22/05/19 18:20 EGPF 221720Z AUTO 29011KT 9999 BKN036 BKN045 13/06 Q1016 WNW (290°) 12.7mph 13°C 6°C
22/05/19 17:50 EGPF 221650Z AUTO 27013KT 9999 BKN038 15/06 Q1016 W (270°) 15.0mph 15°C 6°C
22/05/19 17:20 EGPF 221620Z AUTO 27013KT 9999 FEW041 15/06 Q1016 W (270°) 15.0mph 15°C 6°C
22/05/19 16:50 EGPF 221550Z AUTO 26014KT 9999 BKN047 14/06 Q1016 W (260°) 16.1mph 14°C 6°C
22/05/19 16:20 EGPF 221520Z AUTO 26011KT 220V300 9999 BKN037 OVC044 15/06 Q1017 W (260°) 12.7mph 15°C 6°C
22/05/19 15:50 EGPF 221450Z AUTO 26011KT 9999 BKN038 OVC047 14/06 Q1017 W (260°) 12.7mph 14°C 6°C
22/05/19 15:20 EGPF 221420Z AUTO 27009KT 230V300 9999 BKN038 OVC047 15/06 Q1017 W (270°) 10.4mph 15°C 6°C
22/05/19 14:20 EGPF 221320Z AUTO 28009KT 240V320 9999 BKN034 14/06 Q1017 W (280°) 10.4mph 14°C 6°C
22/05/19 13:50 EGPF 221250Z AUTO 29010KT 260V330 9999 BKN031 15/07 Q1017 WNW (290°) 11.5mph 15°C 7°C
22/05/19 13:20 EGPF 221220Z AUTO 27011KT 9999 BKN030 OVC044 13/06 Q1017 W (270°) 12.7mph 13°C 6°C
22/05/19 12:50 EGPF 221150Z AUTO 27010KT 240V310 9999 OVC031 13/06 Q1017 W (270°) 11.5mph 13°C 6°C
22/05/19 12:20 EGPF 221120Z AUTO 28010KT 9999 BKN030 13/06 Q1017 W (280°) 11.5mph 13°C 6°C
22/05/19 11:50 EGPF 221050Z AUTO 29012KT 260V320 9999 BKN033 13/06 Q1017 WNW (290°) 13.8mph 13°C 6°C